Time;durP1;ratioP1;P1;durP2;ratioP2;P2;SDS_P1;SDS_P2;PMS_P1;PMS_P2;Temp;Humidity;BMP_temperature;BMP_pressure;BME280_temperature;BME280_humidity;BME280_pressure;Samples;Min_cycle;Max_cycle;Signal;HPM_P1;HPM_P2
2022/01/26 00:00:57;;;;;;;10.05;6.43;;;;;;;-0.87;100.00;100269.88;4915537;29;20039;-69
2022/01/26 00:06:13;;;;;;;2.38;2.28;;;;;;;-0.82;100.00;100268.44;4914034;29;20524;-69
2022/01/26 00:08:39;;;;;;;3.33;3.13;;;;;;;-0.89;100.00;100266.34;4919008;29;20241;-68
2022/01/26 00:11:05;;;;;;;4.90;4.43;;;;;;;-0.85;100.00;100269.94;4919229;29;20497;-68
2022/01/26 00:13:30;;;;;;;6.95;4.70;;;;;;;-0.67;100.00;100267.47;4919367;29;20474;-68
2022/01/26 00:15:57;;;;;;;3.63;3.42;;;;;;;-0.61;100.00;100271.19;4918971;29;20051;-68
2022/01/26 00:18:23;;;;;;;5.82;3.20;;;;;;;-0.57;100.00;100275.66;4919219;29;20028;-69
2022/01/26 00:21:03;;;;;;;5.93;5.35;;;;;;;-0.53;100.00;100276.69;4918971;29;20393;-69
2022/01/26 00:26:12;;;;;;;3.47;3.20;;;;;;;-0.54;100.00;100280.00;4919080;29;20040;-68
2022/01/26 00:29:07;;;;;;;10.27;5.03;;;;;;;-0.47;100.00;100281.19;4919444;29;20508;-69
2022/01/26 00:38:34;;;;;;;15.65;6.82;;;;;;;-0.40;100.00;100284.09;4909945;29;20051;-68
2022/01/26 00:40:17;;;;;;;2.63;2.50;;;;;;;-0.43;100.00;100273.78;4917309;29;20493;-68
2022/01/26 00:42:45;;;;;;;2.28;2.08;;;;;;;-0.37;100.00;100279.19;4918811;29;20032;-69
2022/01/26 00:45:11;;;;;;;7.47;3.45;;;;;;;-0.41;100.00;100276.41;4918703;29;20034;-68
2022/01/26 00:47:37;;;;;;;2.88;2.78;;;;;;;-0.39;100.00;100270.56;4918405;29;20107;-68
2022/01/26 00:50:07;;;;;;;9.13;5.47;;;;;;;-0.20;100.00;100276.56;4918517;29;20063;-69
2022/01/26 00:52:43;;;;;;;4.20;3.83;;;;;;;-0.34;100.00;100278.44;4918579;29;20316;-69
2022/01/26 00:55:15;;;;;;;6.47;4.35;;;;;;;-0.45;100.00;100275.38;4918732;29;20438;-68
2022/01/26 00:57:42;;;;;;;5.22;4.78;;;;;;;-0.24;100.00;100274.69;4918695;29;20032;-68
2022/01/26 05:16:15;;;;;;;6.33;4.90;;;;;;;-0.35;99.86;100262.28;5527340;23;20269;-68
2022/01/26 05:18:40;;;;;;;2.90;2.72;;;;;;;-0.43;100.00;100263.59;4918199;29;20856;-68
2022/01/26 05:21:05;;;;;;;4.95;4.22;;;;;;;-0.49;100.00;100264.97;4918255;29;20500;-68
2022/01/26 05:23:30;;;;;;;5.95;4.32;;;;;;;-0.55;100.00;100262.97;4918524;29;20049;-68
2022/01/26 05:25:56;;;;;;;12.45;3.30;;;;;;;-0.62;100.00;100260.94;4911430;29;20505;-68
2022/01/26 05:28:21;;;;;;;3.88;3.58;;;;;;;-0.52;100.00;100251.28;4899156;29;20104;-68
2022/01/26 05:30:46;;;;;;;3.85;3.42;;;;;;;-0.50;100.00;100251.34;4899633;29;20028;-68
2022/01/26 05:33:12;;;;;;;2.55;2.22;;;;;;;-0.53;100.00;100251.22;4906703;29;20032;-68
2022/01/26 05:35:37;;;;;;;4.60;4.30;;;;;;;-0.52;100.00;100247.88;4911332;29;20024;-68
2022/01/26 05:38:03;;;;;;;2.47;2.38;;;;;;;-0.45;100.00;100247.38;4917610;29;20036;-68
2022/01/26 05:40:28;;;;;;;5.88;3.78;;;;;;;-0.36;100.00;100245.28;4917779;29;20100;-68
2022/01/26 05:42:53;;;;;;;2.40;2.17;;;;;;;-0.35;99.70;100247.00;4918078;29;20039;-68
2022/01/26 05:45:26;;;;;;;4.55;4.15;;;;;;;-0.17;99.21;100253.81;4917687;29;20020;-68
2022/01/26 05:47:52;;;;;;;2.75;2.65;;;;;;;-0.16;97.85;100242.81;4917650;29;20051;-68
2022/01/26 05:50:19;;;;;;;6.38;3.92;;;;;;;-0.16;97.01;100247.91;4917822;29;20064;-68
2022/01/26 05:52:44;;;;;;;4.20;3.88;;;;;;;-0.14;97.08;100247.22;4917632;29;20028;-68
2022/01/26 05:55:09;;;;;;;2.97;2.88;;;;;;;-0.13;97.40;100254.03;4917547;29;20024;-68
2022/01/26 05:57:35;;;;;;;3.45;2.70;;;;;;;-0.08;97.37;100251.72;4917276;29;20063;-68
2022/01/26 06:00:00;;;;;;;2.97;2.88;;;;;;;-0.18;97.37;100262.28;4917382;29;20028;-68
2022/01/26 06:02:26;;;;;;;3.53;3.33;;;;;;;-0.22;97.80;100262.91;4913935;29;20055;-68
2022/01/26 06:04:51;;;;;;;3.45;3.20;;;;;;;-0.28;98.01;100259.28;4909049;29;20024;-68
2022/01/26 06:07:16;;;;;;;9.10;5.30;;;;;;;-0.39;98.47;100252.75;4917212;29;20039;-69
2022/01/26 06:09:42;;;;;;;6.07;3.47;;;;;;;-0.47;98.59;100256.63;4917320;29;20037;-68
2022/01/26 06:12:08;;;;;;;4.32;3.50;;;;;;;-0.48;98.96;100262.50;4917182;29;20091;-68
2022/01/26 06:14:33;;;;;;;8.63;3.55;;;;;;;-0.41;98.92;100256.91;4917105;29;20072;-68
2022/01/26 06:16:58;;;;;;;3.53;3.00;;;;;;;-0.46;98.97;100248.16;4916993;29;20127;-68
2022/01/26 06:19:23;;;;;;;7.10;3.05;;;;;;;-0.38;99.86;100246.00;4917261;29;20501;-68
2022/01/26 06:21:49;;;;;;;10.82;3.78;;;;;;;-0.24;98.69;100249.22;4917092;29;20032;-68
2022/01/26 06:24:14;;;;;;;5.90;4.10;;;;;;;-0.36;98.14;100252.91;4917035;29;20028;-68
2022/01/26 06:26:41;;;;;;;7.05;5.45;;;;;;;-0.38;98.66;100257.06;4916616;29;20099;-67
2022/01/26 06:29:07;;;;;;;3.25;2.92;;;;;;;-0.45;98.83;100246.50;4916669;29;20549;-67
2022/01/26 06:31:34;;;;;;;8.45;5.28;;;;;;;-0.41;99.41;100250.94;4916847;29;20119;-67
2022/01/26 06:34:02;;;;;;;4.75;3.40;;;;;;;-0.44;99.43;100244.00;4905819;29;20036;-67
2022/01/26 06:36:27;;;;;;;2.53;2.33;;;;;;;-0.54;99.67;100234.19;4879197;29;20025;-67
2022/01/26 06:38:53;;;;;;;14.63;7.50;;;;;;;-0.44;99.89;100235.50;4879177;29;20547;-67
2022/01/26 06:41:23;;;;;;;3.20;3.00;;;;;;;-0.35;100.00;100236.84;4879162;29;20036;-67
2022/01/26 06:43:55;;;;;;;7.45;4.88;;;;;;;-0.04;99.80;100238.34;4879410;29;20039;-70
2022/01/26 06:46:27;;;;;;;4.63;3.65;;;;;;;-0.23;98.41;100235.69;4879042;29;20065;-76
2022/01/26 06:51:23;;;;;;;2.38;2.00;;;;;;;-0.40;99.01;100238.28;4892386;29;20294;-68
2022/01/26 06:53:49;;;;;;;6.03;3.72;;;;;;;-0.38;99.41;100236.69;4908286;29;20027;-68
2022/01/26 06:56:14;;;;;;;8.05;3.80;;;;;;;-0.39;99.56;100245.13;4916129;29;20032;-68
2022/01/26 06:58:39;;;;;;;4.15;3.80;;;;;;;-0.42;99.18;100257.72;4913969;29;20482;-68
2022/01/26 07:01:05;;;;;;;10.40;6.28;;;;;;;-0.40;99.30;100248.47;4904994;29;20040;-68
2022/01/26 07:03:30;;;;;;;4.55;4.20;;;;;;;-0.52;99.40;100250.41;4905114;29;20032;-68
2022/01/26 07:05:55;;;;;;;2.15;2.05;;;;;;;-0.48;99.67;100256.50;4911907;29;20122;-68
2022/01/26 07:08:21;;;;;;;4.03;3.58;;;;;;;-0.29;99.35;100262.63;4916149;29;20036;-68
2022/01/26 07:10:48;;;;;;;6.82;4.72;;;;;;;-0.26;98.73;100252.56;4916455;29;20367;-68
2022/01/26 07:13:14;;;;;;;2.63;2.53;;;;;;;-0.35;98.86;100257.19;4901805;29;20039;-68
2022/01/26 07:21:25;;;;;;;3.38;3.17;;;;;;;-0.32;98.94;100257.38;4916096;29;20096;-68
2022/01/26 07:23:51;;;;;;;4.63;4.22;;;;;;;-0.43;99.04;100262.75;4915269;29;20028;-68
2022/01/26 07:26:17;;;;;;;2.83;2.63;;;;;;;-0.30;99.98;100260.84;4915736;29;20482;-68
2022/01/26 07:28:42;;;;;;;4.85;3.80;;;;;;;-0.19;98.99;100263.03;4915996;29;20485;-68
2022/01/26 07:31:08;;;;;;;3.67;3.45;;;;;;;-0.06;98.27;100268.81;4915934;29;20055;-68
2022/01/26 07:33:34;;;;;;;3.50;3.30;;;;;;;-0.14;98.20;100277.78;4908154;29;20028;-68
2022/01/26 07:36:00;;;;;;;6.50;4.43;;;;;;;-0.28;99.00;100284.72;4912433;29;20030;-68
2022/01/26 07:38:26;;;;;;;3.03;2.70;;;;;;;-0.23;98.69;100282.41;4915802;29;20111;-68
2022/01/26 07:40:53;;;;;;;2.20;2.00;;;;;;;-0.32;99.20;100287.91;4915988;29;20032;-68
2022/01/26 07:43:18;;;;;;;5.90;4.32;;;;;;;-0.15;98.95;100283.66;4909707;29;20071;-68
2022/01/26 07:45:43;;;;;;;3.92;3.25;;;;;;;0.05;97.55;100284.63;4909873;29;20052;-68
2022/01/26 07:48:09;;;;;;;6.97;5.32;;;;;;;-0.01;96.99;100284.31;4915717;29;20490;-68
2022/01/26 07:50:35;;;;;;;3.63;3.35;;;;;;;-0.18;97.81;100286.06;4915893;29;20485;-68
2022/01/26 07:53:01;;;;;;;9.98;5.18;;;;;;;0.00;97.91;100296.28;4915662;29;20079;-68
2022/01/26 07:55:27;;;;;;;6.20;4.85;;;;;;;-0.06;97.45;100284.09;4915603;29;20477;-68
2022/01/26 07:57:54;;;;;;;9.80;3.95;;;;;;;0.01;97.71;100298.03;4915618;29;20036;-68
2022/01/26 08:00:20;;;;;;;4.75;4.30;;;;;;;0.04;97.56;100305.78;4915526;29;20033;-68
2022/01/26 08:02:46;;;;;;;13.98;3.58;;;;;;;-0.11;97.27;100302.50;4912221;29;20020;-68
2022/01/26 08:05:13;;;;;;;6.68;4.13;;;;;;;-0.10;98.14;100310.22;4907722;29;20039;-68
2022/01/26 08:07:39;;;;;;;4.35;3.95;;;;;;;0.08;97.39;100315.34;4915627;29;20460;-68
2022/01/26 08:10:06;;;;;;;2.65;2.50;;;;;;;0.21;96.56;100310.03;4915480;29;20024;-68
2022/01/26 08:12:32;;;;;;;3.03;2.88;;;;;;;0.22;95.71;100319.44;4911803;29;20024;-68
2022/01/26 08:14:58;;;;;;;5.85;4.93;;;;;;;-0.38;97.60;100330.03;4907472;29;20039;-68
2022/01/26 08:17:23;;;;;;;6.00;5.47;;;;;;;-0.51;98.22;100325.97;4915222;29;20044;-68
2022/01/26 08:19:52;;;;;;;11.30;4.43;;;;;;;0.03;96.95;100321.88;4915405;29;20036;-68
2022/01/26 08:22:19;;;;;;;6.22;3.95;;;;;;;0.04;95.90;100318.53;4915559;29;20040;-68
2022/01/26 08:24:45;;;;;;;4.32;3.92;;;;;;;0.11;96.74;100314.63;4915333;29;20493;-68
2022/01/26 08:27:13;;;;;;;7.57;4.70;;;;;;;-0.09;96.33;100311.13;4915192;29;20500;-68
2022/01/26 08:29:42;;;;;;;4.95;1.92;;;;;;;0.00;96.61;100316.66;4918443;29;20214;-68
2022/01/26 08:32:08;;;;;;;5.05;4.13;;;;;;;0.18;96.22;100320.06;4915711;29;20025;-68
2022/01/26 08:34:33;;;;;;;1.73;1.65;;;;;;;0.14;95.37;100315.63;4911003;29;20122;-68
2022/01/26 08:36:59;;;;;;;3.58;3.15;;;;;;;0.10;95.42;100320.53;4918723;29;20067;-68
2022/01/26 08:39:24;;;;;;;12.55;5.45;;;;;;;0.03;95.30;100326.97;4918639;29;20028;-68
2022/01/26 08:41:50;;;;;;;8.05;7.25;;;;;;;-0.09;96.60;100331.50;4916743;29;20229;-68
2022/01/26 08:44:15;;;;;;;4.43;2.95;;;;;;;0.08;96.50;100330.63;4909113;29;20024;-68
2022/01/26 08:46:41;;;;;;;3.42;3.15;;;;;;;0.07;96.33;100326.34;4918516;29;20063;-68
2022/01/26 08:49:07;;;;;;;13.77;5.57;;;;;;;0.07;96.23;100318.69;4918848;29;20370;-68
2022/01/26 08:51:33;;;;;;;5.57;4.78;;;;;;;0.02;96.51;100309.97;4918791;29;20032;-68
2022/01/26 08:53:59;;;;;;;2.58;2.47;;;;;;;0.22;96.54;100314.34;4918599;29;20032;-68
2022/01/26 08:56:26;;;;;;;11.20;3.90;;;;;;;0.38;94.40;100320.16;4918283;29;20075;-68
2022/01/26 08:58:53;;;;;;;9.13;4.30;;;;;;;0.16;94.81;100324.25;4918431;29;20024;-68
2022/01/26 09:01:18;;;;;;;4.10;3.65;;;;;;;0.18;95.79;100327.72;4918495;29;20039;-68
2022/01/26 09:03:44;;;;;;;3.35;3.05;;;;;;;0.15;95.85;100317.41;4909665;29;20033;-68
2022/01/26 09:06:09;;;;;;;3.22;2.53;;;;;;;0.21;95.86;100314.28;4915780;29;20035;-68
2022/01/26 09:08:38;;;;;;;6.63;4.50;;;;;;;0.12;96.16;100324.03;4917209;29;20024;-68
2022/01/26 09:11:04;;;;;;;8.40;4.80;;;;;;;0.16;95.53;100329.34;4916992;29;20426;-68
2022/01/26 09:13:32;;;;;;;4.18;3.83;;;;;;;0.09;96.22;100332.38;4910770;29;20091;-68
2022/01/26 09:15:57;;;;;;;5.20;3.75;;;;;;;0.02;96.57;100334.56;4914007;29;20036;-68
2022/01/26 09:18:34;;;;;;;3.03;2.83;;;;;;;0.38;95.65;100338.00;4918354;29;20035;-68
2022/01/26 09:20:59;;;;;;;4.65;4.15;;;;;;;0.16;95.64;100338.66;4918231;29;20032;-68
2022/01/26 09:23:25;;;;;;;7.57;3.72;;;;;;;0.32;97.05;100340.25;4918168;29;20031;-68
2022/01/26 09:25:50;;;;;;;12.35;3.67;;;;;;;0.28;97.12;100358.75;4917776;29;20020;-68
2022/01/26 09:28:15;;;;;;;4.78;4.07;;;;;;;0.13;97.68;100359.75;4918035;29;20557;-68
2022/01/26 09:30:41;;;;;;;4.03;2.95;;;;;;;0.22;97.87;100360.22;4918034;29;20115;-68
2022/01/26 09:33:06;;;;;;;2.92;2.80;;;;;;;0.34;97.01;100346.28;4913870;29;20024;-68
2022/01/26 09:35:31;;;;;;;4.80;4.38;;;;;;;0.27;96.71;100342.59;4910436;29;20367;-68
2022/01/26 09:37:57;;;;;;;5.20;4.70;;;;;;;0.18;96.39;100343.00;4917633;29;20116;-68
2022/01/26 09:40:23;;;;;;;5.82;4.00;;;;;;;0.20;96.58;100336.34;4916861;29;20071;-68
2022/01/26 09:42:51;;;;;;;3.28;2.70;;;;;;;0.25;96.21;100334.00;4913997;29;20457;-68
2022/01/26 09:45:17;;;;;;;7.78;4.25;;;;;;;0.16;96.75;100329.34;4909874;29;20055;-68
2022/01/26 09:47:46;;;;;;;3.75;3.53;;;;;;;0.32;95.91;100327.53;4917518;29;20036;-68
2022/01/26 09:50:11;;;;;;;8.85;4.75;;;;;;;0.42;96.22;100322.94;4917653;29;20540;-68
2022/01/26 09:52:41;;;;;;;7.32;3.60;;;;;;;0.14;96.08;100310.53;4917578;29;20107;-68
2022/01/26 09:55:09;;;;;;;18.42;5.00;;;;;;;0.47;96.41;100310.41;4917512;29;20036;-68
2022/01/26 09:57:36;;;;;;;9.65;6.47;;;;;;;0.49;94.75;100303.72;4917238;29;20030;-68
2022/01/26 10:00:04;;;;;;;21.08;4.15;;;;;;;0.46;95.21;100309.53;4917611;29;20028;-68
2022/01/26 10:02:32;;;;;;;4.10;3.90;;;;;;;0.57;95.91;100317.66;4912600;29;20028;-68
2022/01/26 10:05:01;;;;;;;6.03;5.53;;;;;;;0.42;94.81;100316.97;4909461;29;20032;-68
2022/01/26 10:07:40;;;;;;;6.80;3.90;;;;;;;0.53;94.03;100315.78;4917027;29;20079;-68
2022/01/26 10:15:37;;;;;;;13.75;5.65;;;;;;;0.65;94.22;100280.66;4903768;29;20038;-68
2022/01/26 10:18:17;;;;;;;3.90;3.60;;;;;;;0.75;94.09;100289.59;4917222;29;20434;-68
2022/01/26 10:20:48;;;;;;;6.05;5.47;;;;;;;0.86;93.81;100295.19;4917224;29;20024;-68
2022/01/26 10:23:21;;;;;;;7.35;6.75;;;;;;;0.96;93.53;100285.44;4917104;29;20051;-68
2022/01/26 10:26:06;;;;;;;3.20;3.00;;;;;;;0.75;92.71;100282.81;4916771;29;20032;-68
2022/01/26 10:28:56;;;;;;;3.58;3.03;;;;;;;0.57;93.43;100291.31;4916891;29;20164;-68
2022/01/26 10:31:24;;;;;;;3.17;2.90;;;;;;;0.44;92.90;100292.44;4916853;29;20083;-68
2022/01/26 10:33:57;;;;;;;4.47;3.83;;;;;;;0.56;92.94;100289.56;4907142;29;20075;-68
2022/01/26 10:36:35;;;;;;;4.65;4.25;;;;;;;0.49;92.75;100298.63;4915835;29;20060;-68
2022/01/26 10:39:25;;;;;;;6.47;5.25;;;;;;;0.62;92.21;100295.81;4916730;29;20028;-68
2022/01/26 10:41:53;;;;;;;2.78;2.65;;;;;;;0.54;92.50;100281.84;4914612;29;20028;-68
2022/01/26 10:44:34;;;;;;;3.42;3.22;;;;;;;0.33;92.52;100271.50;4907568;29;20070;-68
2022/01/26 10:47:01;;;;;;;8.52;6.07;;;;;;;0.44;93.46;100277.13;4916363;29;20144;-68
2022/01/26 10:52:20;;;;;;;4.13;3.42;;;;;;;0.70;91.98;100288.50;4916670;29;20032;-68
2022/01/26 10:54:47;;;;;;;13.48;5.13;;;;;;;0.65;91.67;100303.59;4916483;29;20028;-68
2022/01/26 10:57:12;;;;;;;8.10;4.20;;;;;;;0.56;91.42;100310.81;4916318;29;20422;-68
2022/01/26 10:59:40;;;;;;;13.70;4.18;;;;;;;0.72;92.04;100312.41;4916355;29;20370;-68
2022/01/26 11:02:07;;;;;;;4.35;3.92;;;;;;;0.51;92.91;100323.38;4913019;29;20155;-68
2022/01/26 11:04:34;;;;;;;6.82;5.82;;;;;;;0.54;92.79;100327.75;4908382;29;20056;-68
2022/01/26 11:07:03;;;;;;;4.53;4.20;;;;;;;0.66;92.44;100328.31;4916016;29;20035;-68
2022/01/26 11:09:31;;;;;;;10.73;4.38;;;;;;;0.58;91.94;100339.84;4916357;29;20397;-68
2022/01/26 11:12:06;;;;;;;9.82;5.20;;;;;;;0.45;92.47;100332.41;4912933;29;20032;-68
2022/01/26 11:14:41;;;;;;;3.38;3.10;;;;;;;-0.07;95.84;100332.44;4897687;29;20104;-68
2022/01/26 11:17:08;;;;;;;4.75;4.30;;;;;;;-0.14;96.85;100340.59;4896961;29;20032;-68
2022/01/26 11:19:45;;;;;;;4.50;4.13;;;;;;;-0.03;96.64;100347.06;4897297;29;20040;-68
2022/01/26 11:22:14;;;;;;;4.45;3.63;;;;;;;-0.25;97.02;100345.13;4897096;29;20083;-68
2022/01/26 11:24:48;;;;;;;2.60;2.50;;;;;;;-0.23;97.31;100347.75;4897023;29;20024;-68
2022/01/26 11:27:16;;;;;;;4.65;4.07;;;;;;;-0.24;97.83;100351.06;4896904;29;20076;-68
2022/01/26 11:29:47;;;;;;;2.95;2.75;;;;;;;0.24;95.42;100322.03;4911238;23;20188;-70
2022/01/26 11:32:24;;;;;;;3.00;2.90;;;;;;;0.15;94.30;100317.41;4898386;29;20398;-70
2022/01/26 11:34:53;;;;;;;4.28;3.88;;;;;;;0.32;93.12;100322.41;4908006;29;20020;-70
2022/01/26 11:37:41;;;;;;;9.83;4.00;;;;;;;0.67;91.95;100314.75;4915628;29;20028;-70
2022/01/26 11:45:24;;;;;;;4.63;4.07;;;;;;;0.60;91.37;100301.66;4907891;29;20114;-71
2022/01/26 11:48:24;;;;;;;5.00;4.60;;;;;;;0.88;90.26;100308.91;4915880;29;20024;-71
2022/01/26 11:51:00;;;;;;;2.72;2.38;;;;;;;0.88;89.71;100321.66;4915764;29;20500;-70
2022/01/26 11:53:28;;;;;;;4.55;1.55;;;;;;;0.70;91.06;100320.00;4915717;29;20060;-70
2022/01/26 11:56:07;;;;;;;10.35;5.43;;;;;;;0.68;91.11;100302.88;4915525;29;20032;-70
2022/01/26 11:58:42;;;;;;;2.55;2.33;;;;;;;0.81;90.81;100311.97;4915878;29;20024;-70
2022/01/26 12:01:22;;;;;;;3.00;2.72;;;;;;;0.75;91.37;100313.44;4915664;29;20032;-70
2022/01/26 12:04:06;;;;;;;3.72;2.83;;;;;;;0.70;92.07;100314.88;4908231;29;20038;-70
2022/01/26 12:06:40;;;;;;;5.43;4.95;;;;;;;0.77;91.69;100296.53;4881977;29;20100;-70
2022/01/26 12:09:07;;;;;;;2.78;1.65;;;;;;;0.87;92.01;100302.03;4881765;29;20017;-70
2022/01/26 12:11:33;;;;;;;4.93;4.55;;;;;;;0.30;93.12;100301.97;4881817;29;20112;-70
2022/01/26 12:14:01;;;;;;;4.30;3.70;;;;;;;0.28;93.99;100297.59;4904394;29;20115;-70
2022/01/26 12:16:38;;;;;;;8.95;3.97;;;;;;;0.43;93.43;100299.16;4918873;29;20546;-70
2022/01/26 12:33:07;;;;;;;4.22;3.10;;;;;;;0.49;91.96;100303.72;4914237;28;20047;-69
2022/01/26 12:35:56;;;;;;;1.67;1.58;;;;;;;0.60;92.41;100302.53;4904386;29;20040;-69
2022/01/26 12:43:44;;;;;;;7.00;2.50;;;;;;;0.43;92.06;100298.31;4909826;29;20413;-69
2022/01/26 12:46:13;;;;;;;2.03;1.88;;;;;;;-0.14;94.98;100307.47;4916234;29;20478;-69
2022/01/26 12:48:40;;;;;;;1.92;1.85;;;;;;;0.08;95.09;100305.16;4918822;29;20043;-69
2022/01/26 12:51:10;;;;;;;2.33;2.20;;;;;;;0.33;93.34;100303.78;4918636;29;20107;-70
2022/01/26 12:53:37;;;;;;;7.90;5.32;;;;;;;0.10;93.84;100318.84;4918691;29;20489;-71
2022/01/26 12:56:06;;;;;;;2.95;2.75;;;;;;;-0.15;94.70;100315.88;4918393;29;20028;-70
2022/01/26 12:58:34;;;;;;;4.53;4.18;;;;;;;0.14;94.42;100310.53;4918668;29;20253;-70
2022/01/26 13:01:03;;;;;;;3.28;2.97;;;;;;;0.31;94.26;100308.81;4918318;29;20024;-71
2022/01/26 13:03:30;;;;;;;2.28;2.15;;;;;;;-0.06;93.98;100306.16;4914945;29;20069;-71
2022/01/26 13:06:13;;;;;;;3.55;3.13;;;;;;;0.04;93.23;100303.25;4914040;29;20036;-71
2022/01/26 13:08:50;;;;;;;7.00;4.28;;;;;;;0.23;92.83;100295.69;4918389;29;20080;-71
2022/01/26 13:11:44;;;;;;;5.30;1.92;;;;;;;0.50;92.75;100291.03;4918711;29;20032;-71
2022/01/26 13:14:21;;;;;;;3.35;3.08;;;;;;;0.52;91.03;100294.50;4905873;29;20040;-71
2022/01/26 13:20:12;;;;;;;5.15;2.78;;;;;;;0.57;89.79;100297.28;4918094;29;20032;-70
2022/01/26 13:25:55;;;;;;;6.32;3.00;;;;;;;0.32;91.41;100309.69;4918470;29;20066;-71
2022/01/26 13:31:18;;;;;;;2.97;2.78;;;;;;;0.20;91.98;100297.25;4917894;29;20059;-71
2022/01/26 14:00:07;;;;;;;1.42;1.42;;;;;;;0.24;94.10;100276.16;4917555;29;20092;-69
2022/01/26 14:02:35;;;;;;;2.58;2.35;;;;;;;0.07;95.17;100288.13;4917358;29;20485;-69
2022/01/26 14:05:00;;;;;;;1.85;1.77;;;;;;;-0.26;96.19;100295.84;4909433;29;20039;-70
2022/01/26 14:07:26;;;;;;;4.65;3.55;;;;;;;-0.21;98.24;100290.13;4917244;29;20032;-69
2022/01/26 14:09:51;;;;;;;3.80;3.60;;;;;;;-0.22;97.67;100293.47;4917183;29;20028;-69
2022/01/26 14:12:21;;;;;;;2.60;2.42;;;;;;;0.09;97.46;100299.25;4911624;29;20032;-69
2022/01/26 14:14:52;;;;;;;;;;;;;;;-0.37;98.12;100314.81;4898900;29;20020;-69
2022/01/26 14:17:27;;;;;;;2.22;1.67;;;;;;;-0.20;98.14;100310.56;4898146;29;19911;-69
2022/01/26 14:22:36;;;;;;;2.35;2.25;;;;;;;-0.32;97.13;100323.56;4898701;29;20044;-69
2022/01/26 14:27:38;;;;;;;2.00;1.90;;;;;;;-0.29;98.15;100339.00;4897914;29;20028;-69
2022/01/26 14:30:18;;;;;;;4.03;3.67;;;;;;;-0.21;96.81;100328.31;4898224;29;20043;-69
2022/01/26 14:51:42;;;;;;;2.28;2.17;;;;;;;-0.49;96.35;100354.06;4916786;29;20031;-70
2022/01/26 15:08:44;;;;;;;2.45;1.73;;;;;;;-0.50;97.57;100365.91;4911781;29;20064;-71
2022/01/26 15:40:23;;;;;;;1.95;1.50;;;;;;;-0.53;97.09;100317.41;4913366;29;20056;-71
2022/01/26 15:58:50;;;;;;;3.55;3.22;;;;;;;0.05;94.31;100305.03;4915836;29;20131;-71
2022/01/26 17:48:30;;;;;;;3.47;1.98;;;;;;;-0.70;93.58;100353.81;4909698;29;20054;-70
2022/01/26 18:16:58;;;;;;;3.30;3.10;;;;;;;-0.47;93.77;100332.97;4909266;29;20020;-70
2022/01/26 18:46:20;;;;;;;4.85;4.10;;;;;;;-0.69;96.05;100340.31;4916721;29;20035;-68
2022/01/26 18:51:36;;;;;;;1.60;1.60;;;;;;;-0.46;94.72;100324.53;4916659;29;20111;-72
2022/01/26 18:54:04;;;;;;;5.10;4.30;;;;;;;-0.53;94.93;100327.59;4916657;29;20031;-73
2022/01/26 18:56:30;;;;;;;3.17;2.97;;;;;;;-0.38;96.27;100318.19;4916317;29;20028;-71
2022/01/26 18:58:55;;;;;;;3.03;2.83;;;;;;;-0.50;95.08;100319.22;4916428;29;20136;-71
2022/01/26 19:01:20;;;;;;;2.55;2.35;;;;;;;-0.44;96.05;100317.84;4916437;29;20035;-71
2022/01/26 19:03:46;;;;;;;9.77;3.53;;;;;;;-0.49;95.05;100323.50;4910997;29;20079;-71
2022/01/26 19:06:11;;;;;;;1.52;1.48;;;;;;;-0.38;93.93;100313.09;4913652;29;20023;-71
2022/01/26 19:08:39;;;;;;;1.92;1.88;;;;;;;-0.37;93.99;100314.81;4916321;29;20032;-70
2022/01/26 19:11:04;;;;;;;1.98;1.88;;;;;;;-0.42;94.05;100311.19;4916007;29;20032;-71
2022/01/26 19:13:31;;;;;;;3.63;2.35;;;;;;;-0.52;93.83;100308.97;4915365;29;20028;-71
2022/01/26 19:16:03;;;;;;;3.10;2.83;;;;;;;-0.42;94.14;100300.13;4908792;29;20031;-72
2022/01/26 19:18:46;;;;;;;2.35;2.15;;;;;;;-0.39;94.36;100311.31;4916068;29;20065;-73
2022/01/26 19:26:26;;;;;;;1.73;1.73;;;;;;;-0.56;95.55;100327.41;4915901;29;20447;-69
2022/01/26 19:28:58;;;;;;;9.45;2.92;;;;;;;-0.76;94.92;100322.97;4915981;29;20071;-68
2022/01/26 19:45:04;;;;;;;4.85;3.03;;;;;;;-0.44;95.00;100307.66;4903267;29;20035;-72
2022/01/26 19:52:55;;;;;;;2.38;2.25;;;;;;;-0.59;94.11;100317.06;4915824;29;20083;-72
2022/01/26 19:55:21;;;;;;;3.25;3.05;;;;;;;-0.75;94.65;100314.53;4915959;29;20111;-73
2022/01/26 19:57:46;;;;;;;2.72;2.50;;;;;;;-0.70;94.57;100313.13;4915610;29;20039;-72
2022/01/26 20:00:12;;;;;;;10.35;3.60;;;;;;;-0.43;95.10;100299.25;4915635;29;20039;-71
2022/01/26 20:02:38;;;;;;;3.33;3.08;;;;;;;-0.47;94.01;100317.72;4915532;29;20067;-72
2022/01/26 20:05:04;;;;;;;2.00;1.90;;;;;;;-0.42;95.15;100301.00;4907877;29;20040;-70
2022/01/26 20:07:31;;;;;;;2.80;2.70;;;;;;;-0.37;94.24;100289.38;4915357;29;20020;-71
2022/01/26 20:10:00;;;;;;;3.47;3.28;;;;;;;-0.22;95.25;100288.38;4915565;29;20100;-70
2022/01/26 20:12:44;;;;;;;11.43;3.67;;;;;;;-0.22;94.78;100293.47;4915478;29;20503;-70
2022/01/26 20:15:09;;;;;;;3.13;2.92;;;;;;;-0.27;94.19;100298.34;4914470;29;20028;-70
2022/01/26 20:17:34;;;;;;;6.57;1.95;;;;;;;-0.51;94.16;100310.72;4908095;29;20405;-69
2022/01/26 20:20:00;;;;;;;3.47;3.20;;;;;;;-0.46;94.43;100323.69;4915191;29;20059;-72
2022/01/26 20:22:26;;;;;;;4.50;3.67;;;;;;;-0.66;94.88;100327.75;4915401;29;20478;-71
2022/01/26 20:24:52;;;;;;;6.63;2.70;;;;;;;-0.76;95.14;100328.94;4917315;29;20036;-71
2022/01/26 20:27:20;;;;;;;7.07;4.47;;;;;;;-0.49;93.87;100323.50;4918919;29;20111;-71
2022/01/26 20:29:51;;;;;;;2.17;2.08;;;;;;;-0.87;94.43;100320.75;4918857;29;20027;-71
2022/01/26 20:32:17;;;;;;;5.45;4.53;;;;;;;-0.64;95.68;100328.69;4918893;29;20035;-71
2022/01/26 20:34:43;;;;;;;19.15;2.92;;;;;;;-0.62;94.50;100332.22;4910963;29;20024;-71
2022/01/26 20:37:09;;;;;;;2.40;2.25;;;;;;;-0.65;94.51;100332.91;4918983;29;20036;-71
2022/01/26 20:39:35;;;;;;;3.03;2.90;;;;;;;-0.57;94.07;100340.94;4918638;29;20024;-71
2022/01/26 20:42:00;;;;;;;7.15;3.50;;;;;;;-0.59;94.89;100337.44;4918907;29;20148;-71
2022/01/26 20:44:26;;;;;;;4.88;4.03;;;;;;;-0.52;93.37;100339.50;4918409;29;20466;-70
2022/01/26 20:46:51;;;;;;;2.67;2.47;;;;;;;-0.67;93.61;100331.09;4910764;29;20043;-70
2022/01/26 20:49:17;;;;;;;1.20;1.20;;;;;;;-0.51;93.79;100325.97;4918576;29;20024;-73
2022/01/26 20:51:42;;;;;;;12.25;5.55;;;;;;;-0.44;94.02;100320.38;4918699;29;20024;-73
2022/01/26 20:54:11;;;;;;;6.70;5.70;;;;;;;-0.63;93.11;100322.78;4918651;29;20034;-70
2022/01/26 20:56:36;;;;;;;1.20;1.20;;;;;;;-0.82;94.42;100309.16;4918364;29;20031;-71
2022/01/26 20:59:01;;;;;;;2.95;2.75;;;;;;;-0.64;94.47;100304.09;4918463;29;20043;-71
2022/01/26 21:01:27;;;;;;;4.95;3.83;;;;;;;-0.80;94.63;100297.38;4918394;29;20485;-73
2022/01/26 21:03:52;;;;;;;4.28;2.78;;;;;;;-0.69;93.92;100297.03;4912212;29;20115;-73
2022/01/26 21:06:18;;;;;;;3.83;2.08;;;;;;;-0.41;93.60;100292.56;4916787;29;20059;-74
2022/01/26 21:08:43;;;;;;;9.38;2.78;;;;;;;-0.39;92.32;100290.94;4918507;29;20165;-74
2022/01/26 21:11:09;;;;;;;2.92;2.83;;;;;;;-0.69;93.50;100304.69;4918428;29;20103;-74
2022/01/26 21:13:37;;;;;;;3.08;2.88;;;;;;;-0.73;93.35;100315.47;4918444;29;20036;-72
2022/01/26 21:16:04;;;;;;;2.22;2.13;;;;;;;-0.40;94.01;100314.66;4910317;29;20406;-72
2022/01/26 21:18:32;;;;;;;3.10;2.90;;;;;;;-0.65;93.66;100314.22;4918170;29;20039;-72
2022/01/26 21:20:59;;;;;;;2.85;2.65;;;;;;;-0.37;92.62;100307.19;4918303;29;20035;-72
2022/01/26 21:23:25;;;;;;;2.22;2.13;;;;;;;-0.56;92.27;100304.50;4918338;29;20024;-73
2022/01/26 21:25:50;;;;;;;9.40;4.25;;;;;;;-1.03;94.45;100318.19;4918107;29;20478;-73
2022/01/26 21:28:16;;;;;;;2.38;2.28;;;;;;;-0.71;94.00;100301.19;4918115;29;20541;-70
2022/01/26 21:30:41;;;;;;;2.00;1.90;;;;;;;-0.60;93.19;100280.56;4913099;29;20024;-72
2022/01/26 21:33:07;;;;;;;2.15;2.05;;;;;;;-0.43;93.77;100285.66;4902424;29;20028;-71
2022/01/26 21:35:32;;;;;;;3.33;3.08;;;;;;;-0.45;92.50;100293.19;4909524;29;20505;-73
2022/01/26 21:37:58;;;;;;;2.45;2.35;;;;;;;-0.61;92.26;100299.19;4917885;29;20031;-73
2022/01/26 21:40:23;;;;;;;4.88;4.05;;;;;;;-0.42;92.46;100283.16;4915409;29;20032;-73
2022/01/26 21:42:49;;;;;;;1.77;1.67;;;;;;;-0.38;91.80;100274.91;4898810;29;20024;-72
2022/01/26 21:45:14;;;;;;;4.32;2.65;;;;;;;-0.32;91.96;100280.28;4899012;29;20028;-73
2022/01/26 21:47:40;;;;;;;1.30;1.30;;;;;;;-0.52;91.95;100263.16;4898619;29;20204;-73